createdAt,value
2018-06-28T00:00:38.109Z,9.60
2018-06-28T00:03:06.459Z,3.72
2018-06-28T00:05:34.800Z,4.95
2018-06-28T00:08:03.178Z,7.85
2018-06-28T00:10:31.569Z,5.45
2018-06-28T00:12:59.944Z,5.05
2018-06-28T00:15:28.463Z,6.60
2018-06-28T00:17:56.992Z,5.65
2018-06-28T00:20:25.298Z,15.38
2018-06-28T00:22:53.613Z,11.03
2018-06-28T00:25:21.951Z,12.37
2018-06-28T00:27:50.243Z,4.50
2018-06-28T00:30:18.580Z,5.55
2018-06-28T00:32:46.979Z,4.85
2018-06-28T00:35:15.304Z,6.87
2018-06-28T00:37:43.688Z,8.48
2018-06-28T00:40:12.049Z,9.25
2018-06-28T00:42:40.419Z,6.30
2018-06-28T00:45:09.078Z,8.23
2018-06-28T00:47:37.500Z,7.75
2018-06-28T00:50:05.958Z,6.70
2018-06-28T00:52:34.417Z,9.43
2018-06-28T00:55:03.744Z,9.40
2018-06-28T00:57:32.716Z,7.45
2018-06-28T01:00:01.052Z,8.88
2018-06-28T01:02:29.360Z,7.37
2018-06-28T01:04:57.692Z,8.33
2018-06-28T01:07:25.996Z,6.15
2018-06-28T01:09:54.282Z,6.87
2018-06-28T01:12:22.619Z,8.40
2018-06-28T01:14:50.960Z,8.60
2018-06-28T01:17:19.241Z,5.50
2018-06-28T01:19:47.547Z,6.70
2018-06-28T01:22:15.873Z,9.73
2018-06-28T01:24:44.197Z,8.83
2018-06-28T01:27:12.706Z,12.55
2018-06-28T01:29:42.308Z,10.43
2018-06-28T01:32:10.659Z,5.78
2018-06-28T01:34:39.094Z,7.35
2018-06-28T01:37:07.477Z,11.33
2018-06-28T01:39:35.818Z,11.45
2018-06-28T01:42:15.395Z,9.28
2018-06-28T01:44:43.910Z,8.35
2018-06-28T01:47:12.249Z,8.40
2018-06-28T01:49:40.625Z,10.75
2018-06-28T01:52:08.963Z,6.15
2018-06-28T01:54:37.370Z,7.72
2018-06-28T01:57:05.771Z,12.28
2018-06-28T01:59:34.138Z,11.40
2018-06-28T02:02:02.491Z,8.98
2018-06-28T02:04:30.801Z,7.72
2018-06-28T02:06:59.112Z,7.83
2018-06-28T02:09:27.456Z,8.75
2018-06-28T02:11:55.772Z,12.68
2018-06-28T02:14:24.101Z,9.08
2018-06-28T02:16:52.492Z,8.63
2018-06-28T02:19:21.014Z,10.25
2018-06-28T02:21:49.520Z,7.80
2018-06-28T02:24:17.929Z,10.20
2018-06-28T02:26:46.346Z,7.78
2018-06-28T02:29:14.691Z,9.23
2018-06-28T02:31:43.030Z,9.18
2018-06-28T02:34:11.380Z,10.70
2018-06-28T02:36:39.731Z,13.03
2018-06-28T02:39:08.645Z,10.35
2018-06-28T02:41:36.981Z,8.58
2018-06-28T02:44:05.375Z,9.20
2018-06-28T02:46:34.021Z,13.35
2018-06-28T02:49:02.350Z,10.45
2018-06-28T02:51:30.684Z,10.72
2018-06-28T02:53:59.017Z,11.93
2018-06-28T02:56:27.333Z,15.50
2018-06-28T02:58:55.836Z,10.20
2018-06-28T03:01:24.366Z,13.55
2018-06-28T03:03:52.836Z,10.65
2018-06-28T03:06:21.152Z,14.25
2018-06-28T03:08:49.468Z,14.35
2018-06-28T03:11:18.033Z,16.50
2018-06-28T03:13:46.392Z,11.05
2018-06-28T03:16:14.710Z,8.10
2018-06-28T03:18:43.203Z,10.25
2018-06-28T03:21:11.600Z,9.60
2018-06-28T03:23:39.945Z,11.00
2018-06-28T03:26:08.311Z,12.50
2018-06-28T03:28:36.674Z,11.60
2018-06-28T03:31:05.273Z,11.85
2018-06-28T03:33:33.456Z,9.95
2018-06-28T03:36:01.980Z,11.75
2018-06-28T03:38:31.123Z,7.92
2018-06-28T03:40:59.595Z,10.13
2018-06-28T03:43:28.346Z,9.63
2018-06-28T03:45:56.727Z,11.53
2018-06-28T03:48:25.024Z,10.35
2018-06-28T03:50:54.204Z,8.85
2018-06-28T03:53:22.549Z,10.32
2018-06-28T03:55:50.929Z,10.15
2018-06-28T03:58:19.269Z,13.95
2018-06-28T04:00:47.583Z,10.78
2018-06-28T04:03:15.929Z,11.53
2018-06-28T04:05:44.261Z,10.00
2018-06-28T04:08:12.671Z,16.23
2018-06-28T04:10:41.064Z,9.58
2018-06-28T04:13:09.360Z,10.23
2018-06-28T04:15:37.864Z,10.28
2018-06-28T04:18:06.467Z,9.85
2018-06-28T04:20:34.500Z,8.45
2018-06-28T04:23:02.860Z,15.00
2018-06-28T04:25:31.189Z,9.68
2018-06-28T04:27:59.246Z,15.23
2018-06-28T04:30:27.614Z,10.98
2018-06-28T04:32:55.991Z,10.98
2018-06-28T04:35:24.324Z,10.40
2018-06-28T04:37:52.649Z,11.28
2018-06-28T04:40:21.046Z,16.12
2018-06-28T04:42:49.412Z,11.00
2018-06-28T04:45:17.726Z,10.48
2018-06-28T04:47:46.108Z,11.35
2018-06-28T04:50:14.465Z,11.08
2018-06-28T04:52:42.970Z,11.30
2018-06-28T04:55:11.351Z,13.20
2018-06-28T04:57:39.766Z,16.62
2018-06-28T05:00:08.119Z,7.55
2018-06-28T05:02:36.581Z,8.10
2018-06-28T05:05:04.857Z,11.45
2018-06-28T05:07:33.373Z,10.28
2018-06-28T05:10:01.753Z,7.30
2018-06-28T05:12:30.127Z,15.75
2018-06-28T05:14:58.497Z,9.50
2018-06-28T05:17:26.935Z,21.97
2018-06-28T05:19:55.307Z,12.23
2018-06-28T05:22:23.787Z,9.43
2018-06-28T05:24:52.325Z,10.05
2018-06-28T05:27:20.842Z,8.00
2018-06-28T05:29:49.694Z,9.60
2018-06-28T05:32:18.145Z,9.58
2018-06-28T05:34:46.628Z,13.05
2018-06-28T05:37:14.942Z,6.92
2018-06-28T05:39:43.317Z,13.50
2018-06-28T05:42:13.192Z,15.90
2018-06-28T05:44:41.510Z,9.95
2018-06-28T05:47:09.985Z,10.08
2018-06-28T05:49:38.893Z,11.12
2018-06-28T05:52:07.324Z,11.57
2018-06-28T05:54:35.663Z,12.50
2018-06-28T05:57:04.076Z,11.30
2018-06-28T05:59:32.465Z,10.50
2018-06-28T06:11:14.142Z,8.30
2018-06-28T06:13:42.490Z,7.35
2018-06-28T06:16:10.867Z,10.50
2018-06-28T06:18:39.241Z,9.80
2018-06-28T06:21:07.536Z,9.28
2018-06-28T06:23:35.921Z,9.30
2018-06-28T06:26:04.272Z,15.50
2018-06-28T06:28:32.744Z,8.70
2018-06-28T06:31:01.318Z,7.78
2018-06-28T06:33:29.777Z,8.58
2018-06-28T06:35:58.232Z,19.30
2018-06-28T06:38:26.893Z,9.10
2018-06-28T06:40:55.215Z,6.53
2018-06-28T06:43:23.586Z,5.78
2018-06-28T06:45:51.893Z,5.53
2018-06-28T06:48:20.220Z,10.80
2018-06-28T06:50:48.537Z,5.95
2018-06-28T06:53:16.874Z,12.80
2018-06-28T06:55:45.253Z,7.47
2018-06-28T06:58:18.401Z,7.20
2018-06-28T07:00:58.588Z,8.83
2018-06-28T07:03:28.664Z,6.35
2018-06-28T07:05:57.052Z,7.20
2018-06-28T07:08:25.472Z,4.67
2018-06-28T07:10:53.884Z,7.05
2018-06-28T07:13:22.199Z,4.00
2018-06-28T07:15:50.588Z,6.50
2018-06-28T07:18:19.001Z,4.83
2018-06-28T07:20:47.435Z,9.28
2018-06-28T07:23:15.888Z,7.03
2018-06-28T07:25:44.258Z,8.45
2018-06-28T07:28:12.673Z,5.03
2018-06-28T07:30:41.063Z,3.30
2018-06-28T07:33:09.490Z,5.47
2018-06-28T07:35:37.960Z,11.78
2018-06-28T07:38:06.389Z,7.58
2018-06-28T07:40:34.729Z,4.28
2018-06-28T07:43:03.091Z,4.17
2018-06-28T07:45:32.344Z,3.98
2018-06-28T07:48:00.763Z,2.85
2018-06-28T07:50:29.155Z,13.53
2018-06-28T07:52:57.494Z,3.02
2018-06-28T07:55:25.860Z,4.72
2018-06-28T07:57:54.234Z,5.58
2018-06-28T08:00:22.628Z,2.75
2018-06-28T08:02:50.973Z,2.92
2018-06-28T08:05:19.313Z,5.65
2018-06-28T08:07:47.726Z,2.87
2018-06-28T08:10:16.212Z,4.42
2018-06-28T08:12:44.631Z,3.92
2018-06-28T08:15:13.504Z,2.47
2018-06-28T08:17:41.917Z,3.95
2018-06-28T08:20:10.279Z,5.05
2018-06-28T08:22:38.684Z,4.87
2018-06-28T08:25:07.051Z,3.25
2018-06-28T08:27:35.501Z,3.75
2018-06-28T08:30:03.935Z,3.40
2018-06-28T08:32:33.107Z,2.83
2018-06-28T08:35:01.401Z,2.60
2018-06-28T08:37:29.708Z,3.92
2018-06-28T08:39:58.117Z,4.37
2018-06-28T08:42:26.520Z,4.40
2018-06-28T08:44:54.876Z,6.72
2018-06-28T08:47:23.412Z,2.42
2018-06-28T08:49:51.770Z,3.20
2018-06-28T08:52:20.244Z,4.62
2018-06-28T08:54:48.803Z,6.05
2018-06-28T08:57:17.141Z,2.70
2018-06-28T08:59:45.553Z,5.33
2018-06-28T09:02:13.891Z,3.05
2018-06-28T09:04:42.274Z,4.12
2018-06-28T09:07:10.738Z,3.55
2018-06-28T09:09:39.048Z,4.33
2018-06-28T09:12:07.109Z,5.05
2018-06-28T09:14:35.475Z,6.00
2018-06-28T09:17:03.845Z,4.40
2018-06-28T09:19:32.285Z,1.90
2018-06-28T09:22:02.039Z,5.78
2018-06-28T09:24:30.597Z,2.77
2018-06-28T09:26:59.069Z,2.35
2018-06-28T09:29:27.592Z,2.77
2018-06-28T09:31:55.998Z,2.17
2018-06-28T09:34:24.494Z,2.42
2018-06-28T09:36:52.830Z,4.87
2018-06-28T09:39:21.154Z,2.45
2018-06-28T09:41:49.488Z,3.33
2018-06-28T09:44:17.849Z,2.95
2018-06-28T09:46:46.226Z,3.08
2018-06-28T09:49:14.648Z,2.15
2018-06-28T09:51:43.063Z,1.60
2018-06-28T09:54:11.666Z,5.25
2018-06-28T09:56:40.009Z,2.30
2018-06-28T09:59:08.400Z,2.30
2018-06-28T10:01:36.739Z,5.00
2018-06-28T10:04:05.238Z,2.58
2018-06-28T10:06:34.537Z,3.10
2018-06-28T10:09:03.149Z,2.75
2018-06-28T10:11:31.836Z,4.62
2018-06-28T10:14:00.180Z,6.60
2018-06-28T10:16:28.557Z,1.72
2018-06-28T10:18:56.897Z,3.35
2018-06-28T10:21:25.340Z,5.72
2018-06-28T10:23:53.650Z,1.75
2018-06-28T10:26:22.016Z,4.10
2018-06-28T10:28:50.370Z,1.70
2018-06-28T10:31:18.794Z,1.75
2018-06-28T10:33:47.150Z,2.50
2018-06-28T10:36:15.539Z,2.00
2018-06-28T10:38:44.440Z,1.80
2018-06-28T10:41:12.770Z,3.10
2018-06-28T10:43:41.247Z,3.33
2018-06-28T10:46:09.862Z,6.25
2018-06-28T10:48:38.335Z,9.05
2018-06-28T10:51:06.822Z,6.55
2018-06-28T10:53:35.179Z,1.80
2018-06-28T10:56:03.477Z,3.60
2018-06-28T10:58:31.864Z,2.08
2018-06-28T11:01:00.192Z,4.53
2018-06-28T11:03:28.517Z,3.55
2018-06-28T11:05:56.969Z,9.15
2018-06-28T11:08:25.432Z,5.53
2018-06-28T11:10:53.692Z,3.30
2018-06-28T11:13:22.002Z,1.92
2018-06-28T11:15:51.506Z,2.67
2018-06-28T11:18:19.920Z,2.05
2018-06-28T11:20:51.440Z,1.80
2018-06-28T11:23:19.895Z,2.27
2018-06-28T11:25:49.375Z,2.00
2018-06-28T11:28:17.819Z,3.70
2018-06-28T11:30:48.508Z,1.27
2018-06-28T11:33:17.035Z,3.70
2018-06-28T11:35:45.614Z,1.37
2018-06-28T11:38:14.046Z,3.83
2018-06-28T11:40:42.430Z,2.85
2018-06-28T11:43:10.808Z,1.67
2018-06-28T11:45:39.113Z,2.00
2018-06-28T11:48:07.542Z,4.25
2018-06-28T11:50:35.896Z,2.30
2018-06-28T11:53:04.267Z,1.40
2018-06-28T11:55:32.688Z,4.85
2018-06-28T11:58:01.025Z,4.62
2018-06-28T12:00:29.586Z,2.70
2018-06-28T12:02:58.095Z,2.47
2018-06-28T12:05:26.503Z,1.70
2018-06-28T12:07:55.059Z,1.50
2018-06-28T12:10:23.620Z,1.80
2018-06-28T12:12:52.849Z,2.52
2018-06-28T12:15:21.436Z,1.87
2018-06-28T12:17:50.816Z,1.80
2018-06-28T12:20:19.141Z,3.22
2018-06-28T12:22:47.443Z,3.00
2018-06-28T12:25:15.790Z,2.42
2018-06-28T12:27:43.832Z,1.80
2018-06-28T12:30:12.268Z,6.78
2018-06-28T12:32:40.618Z,4.87
2018-06-28T12:35:09.056Z,3.70
2018-06-28T12:37:37.484Z,1.87
2018-06-28T12:40:06.149Z,3.95
2018-06-28T12:42:34.511Z,7.25
2018-06-28T12:45:02.907Z,1.45
2018-06-28T12:47:54.479Z,2.90
2018-06-28T12:50:22.865Z,5.30
2018-06-28T12:53:07.922Z,1.30
2018-06-28T12:57:17.321Z,2.90
2018-06-28T12:59:45.735Z,2.05
2018-06-28T13:02:14.116Z,2.58
2018-06-28T13:04:42.495Z,8.20
2018-06-28T13:07:10.886Z,2.47
2018-06-28T13:09:39.279Z,4.97
2018-06-28T13:12:07.864Z,4.15
2018-06-28T13:14:36.234Z,2.22
2018-06-28T13:17:04.691Z,1.07
2018-06-28T13:19:33.243Z,2.62
2018-06-28T13:22:01.675Z,4.97
2018-06-28T13:24:30.007Z,1.40
2018-06-28T13:26:58.383Z,1.00
2018-06-28T13:29:26.745Z,2.77
2018-06-28T13:31:55.229Z,4.15
2018-06-28T13:34:23.704Z,3.47
2018-06-28T13:36:52.047Z,4.15
2018-06-28T13:39:20.451Z,3.27
2018-06-28T13:41:48.811Z,4.05
2018-06-28T13:44:17.134Z,2.22
2018-06-28T13:46:45.550Z,3.55
2018-06-28T13:49:13.979Z,1.45
2018-06-28T13:51:42.355Z,3.33
2018-06-28T13:54:10.834Z,2.77
2018-06-28T13:56:39.335Z,3.35
2018-06-28T13:59:07.541Z,2.90
2018-06-28T14:01:38.358Z,1.52
2018-06-28T14:04:06.779Z,5.15
2018-06-28T14:06:35.144Z,6.05
2018-06-28T14:09:03.653Z,2.75
2018-06-28T14:11:32.014Z,2.33
2018-06-28T14:14:01.309Z,4.35
2018-06-28T14:16:29.715Z,1.67
2018-06-28T14:18:58.073Z,3.35
2018-06-28T14:21:27.526Z,5.10
2018-06-28T14:23:55.870Z,1.72
2018-06-28T14:26:24.291Z,2.37
2018-06-28T14:28:52.646Z,1.57
2018-06-28T14:31:21.122Z,1.25
2018-06-28T14:33:49.615Z,4.17
2018-06-28T14:36:18.134Z,3.02
2018-06-28T14:38:46.592Z,3.02
2018-06-28T14:41:15.113Z,1.47
2018-06-28T14:43:43.532Z,1.52
2018-06-28T14:46:11.580Z,1.80
2018-06-28T14:48:39.907Z,2.27
2018-06-28T14:51:08.816Z,1.75
2018-06-28T14:53:37.195Z,2.40
2018-06-28T14:56:12.368Z,4.50
2018-06-28T14:58:40.868Z,1.37
2018-06-28T15:01:09.139Z,4.22
2018-06-28T15:03:37.508Z,1.87
2018-06-28T15:06:05.863Z,8.00
2018-06-28T15:08:34.267Z,2.27
2018-06-28T15:11:03.632Z,1.30
2018-06-28T15:13:32.090Z,6.25
2018-06-28T15:16:00.494Z,2.30
2018-06-28T15:18:28.821Z,3.27
2018-06-28T15:20:56.977Z,6.10
2018-06-28T15:23:25.483Z,2.02
2018-06-28T15:25:54.011Z,3.42
2018-06-28T15:28:22.469Z,6.15
2018-06-28T15:30:51.273Z,4.33
2018-06-28T15:33:20.761Z,2.52
2018-06-28T15:35:49.207Z,3.42
2018-06-28T15:38:17.840Z,1.82
2018-06-28T15:40:46.257Z,1.50
2018-06-28T15:43:14.575Z,1.85
2018-06-28T15:45:43.093Z,1.32
2018-06-28T15:48:11.816Z,9.48
2018-06-28T15:50:40.175Z,1.37
2018-06-28T15:53:08.884Z,6.28
2018-06-28T15:55:37.236Z,2.02
2018-06-28T15:58:06.402Z,1.45
2018-06-28T16:00:34.753Z,1.50
2018-06-28T16:03:03.108Z,3.75
2018-06-28T16:05:31.588Z,1.30
2018-06-28T16:08:00.056Z,1.72
2018-06-28T16:10:29.339Z,3.85
2018-06-28T16:12:57.843Z,2.00
2018-06-28T16:15:25.955Z,1.57
2018-06-28T16:17:54.341Z,1.32
2018-06-28T16:20:22.754Z,8.15
2018-06-28T16:22:51.095Z,2.40
2018-06-28T16:25:19.444Z,6.90
2018-06-28T16:27:47.804Z,2.25
2018-06-28T16:30:16.220Z,3.05
2018-06-28T16:32:44.714Z,1.72
2018-06-28T16:35:13.047Z,1.40
2018-06-28T16:37:41.442Z,7.12
2018-06-28T16:40:09.522Z,6.55
2018-06-28T16:42:37.986Z,5.03
2018-06-28T16:45:06.431Z,2.37
2018-06-28T16:47:34.812Z,5.20
2018-06-28T16:50:03.263Z,1.67
2018-06-28T16:52:31.577Z,1.80
2018-06-28T16:54:59.981Z,3.15
2018-06-28T16:57:28.390Z,3.37
2018-06-28T16:59:56.780Z,1.70
2018-06-28T17:02:25.188Z,2.67
2018-06-28T17:04:56.816Z,3.45
2018-06-28T17:07:25.273Z,4.40
2018-06-28T17:09:53.388Z,2.90
2018-06-28T17:12:21.762Z,4.70
2018-06-28T17:14:50.079Z,6.65
2018-06-28T17:17:18.477Z,1.22
2018-06-28T17:19:46.941Z,5.95
2018-06-28T17:22:15.326Z,2.27
2018-06-28T17:24:43.472Z,6.33
2018-06-28T17:27:11.898Z,1.65
2018-06-28T17:29:40.646Z,6.97
2018-06-28T17:32:09.234Z,1.87
2018-06-28T17:34:37.593Z,4.20
2018-06-28T17:37:05.962Z,3.08
2018-06-28T17:39:34.550Z,1.37
2018-06-28T17:42:02.944Z,5.80
2018-06-28T17:44:31.234Z,2.62
2018-06-28T17:46:59.739Z,3.30
2018-06-28T17:49:28.191Z,5.25
2018-06-28T17:51:56.508Z,7.60
2018-06-28T17:54:24.849Z,2.15
2018-06-28T17:56:53.159Z,1.50
2018-06-28T17:59:21.613Z,1.65
2018-06-28T18:01:50.841Z,2.33
2018-06-28T18:04:19.354Z,4.87
2018-06-28T18:06:47.890Z,1.52
2018-06-28T18:09:16.244Z,3.45
2018-06-28T18:11:44.607Z,1.45
2018-06-28T18:14:13.068Z,2.72
2018-06-28T18:16:41.409Z,4.83
2018-06-28T18:19:09.830Z,1.40
2018-06-28T18:21:38.217Z,1.40
2018-06-28T18:24:06.608Z,2.47
2018-06-28T18:26:34.957Z,2.62
2018-06-28T18:29:03.350Z,4.03
2018-06-28T18:31:31.778Z,12.25
2018-06-28T18:34:00.382Z,3.80
2018-06-28T18:36:28.813Z,1.07
2018-06-28T18:38:57.432Z,3.62
2018-06-28T18:41:25.983Z,2.12
2018-06-28T18:43:54.673Z,2.30
2018-06-28T18:46:23.209Z,8.48
2018-06-28T18:48:51.611Z,4.28
2018-06-28T18:51:20.010Z,4.30
2018-06-28T18:53:48.083Z,4.62
2018-06-28T18:56:16.385Z,2.25
2018-06-28T18:58:44.500Z,1.70
2018-06-28T19:01:12.873Z,2.33
2018-06-28T19:03:41.273Z,1.82
2018-06-28T19:06:09.692Z,1.85
2018-06-28T19:08:38.062Z,7.17
2018-06-28T19:11:07.048Z,5.10
2018-06-28T19:13:40.004Z,3.67
2018-06-28T19:16:13.751Z,3.60
2018-06-28T19:18:42.055Z,8.15
2018-06-28T19:21:16.389Z,3.80
2018-06-28T19:23:49.620Z,6.30
2018-06-28T19:26:18.893Z,1.55
2018-06-28T19:28:48.162Z,2.83
2018-06-28T19:31:21.866Z,5.60
2018-06-28T19:33:50.463Z,5.97
2018-06-28T19:36:18.959Z,11.50
2018-06-28T19:38:52.524Z,2.90
2018-06-28T19:41:26.384Z,3.42
2018-06-28T19:43:54.757Z,1.67
2018-06-28T19:46:23.117Z,5.80
2018-06-28T19:48:51.415Z,5.40
2018-06-28T19:51:25.060Z,3.25
2018-06-28T19:53:53.675Z,3.25
2018-06-28T19:56:22.039Z,5.50
2018-06-28T19:58:50.505Z,2.35
2018-06-28T20:01:24.306Z,3.15
2018-06-28T20:03:58.780Z,1.60
2018-06-28T20:06:27.117Z,7.85
2018-06-28T20:08:55.581Z,3.05
2018-06-28T20:11:23.922Z,3.47
2018-06-28T20:13:57.509Z,1.67
2018-06-28T20:16:31.951Z,1.35
2018-06-28T20:19:05.633Z,4.83
2018-06-28T20:21:34.010Z,5.90
2018-06-28T20:24:02.358Z,6.65
2018-06-28T20:27:38.803Z,4.45
2018-06-28T20:30:12.805Z,3.02
2018-06-28T20:32:46.560Z,3.98
2018-06-28T20:35:15.289Z,1.27
2018-06-28T20:37:44.869Z,5.20
2018-06-28T20:40:13.535Z,7.72
2018-06-28T20:42:42.068Z,2.22
2018-06-28T20:45:10.602Z,3.90
2018-06-28T20:47:38.979Z,3.20
2018-06-28T20:50:07.469Z,5.05
2018-06-28T20:52:35.814Z,1.42
2018-06-28T20:55:04.236Z,1.72
2018-06-28T20:57:32.673Z,1.98
2018-06-28T21:00:01.617Z,3.30
2018-06-28T21:02:30.048Z,2.83
2018-06-28T21:04:58.461Z,2.85
2018-06-28T21:07:32.446Z,3.25
2018-06-28T21:10:02.428Z,2.27
2018-06-28T21:12:30.761Z,4.80
2018-06-28T21:14:59.065Z,2.67
2018-06-28T21:17:28.953Z,4.78
2018-06-28T21:19:57.333Z,6.87
2018-06-28T21:22:26.039Z,4.80
2018-06-28T21:24:54.693Z,2.22
2018-06-28T21:27:23.194Z,4.42
2018-06-28T21:29:51.762Z,4.08
2018-06-28T21:32:20.647Z,6.37
2018-06-28T21:34:49.276Z,3.17
2018-06-28T21:37:17.591Z,2.35
2018-06-28T21:39:46.012Z,4.80
2018-06-28T21:42:14.502Z,1.62
2018-06-28T21:44:42.818Z,3.35
2018-06-28T21:47:11.246Z,2.08
2018-06-28T21:49:39.616Z,9.38
2018-06-28T21:52:08.092Z,1.92
2018-06-28T21:54:36.479Z,2.77
2018-06-28T21:57:04.861Z,3.25
2018-06-28T21:59:33.222Z,5.00
2018-06-28T22:02:01.552Z,3.35
2018-06-28T22:04:30.022Z,10.55
2018-06-28T22:06:58.578Z,2.58
2018-06-28T22:09:27.144Z,2.02
2018-06-28T22:11:55.495Z,2.55
2018-06-28T22:14:25.175Z,8.58
2018-06-28T22:16:53.489Z,3.67
2018-06-28T22:19:21.827Z,4.33
2018-06-28T22:21:50.183Z,8.40
2018-06-28T22:24:18.609Z,3.15
2018-06-28T22:26:46.980Z,4.55
2018-06-28T22:29:15.316Z,3.92
2018-06-28T22:31:43.754Z,2.42
2018-06-28T22:34:12.139Z,3.50
2018-06-28T22:36:40.473Z,1.87
2018-06-28T22:39:11.295Z,1.75
2018-06-28T22:41:39.999Z,2.87
2018-06-28T22:44:08.450Z,5.37
2018-06-28T22:46:37.326Z,5.17
2018-06-28T22:49:06.407Z,3.22
2018-06-28T22:51:34.792Z,2.37
2018-06-28T22:54:03.216Z,1.40
2018-06-28T22:56:31.725Z,6.00
2018-06-28T22:59:00.131Z,1.45
2018-06-28T23:01:28.460Z,4.12
2018-06-28T23:03:56.872Z,2.33
2018-06-28T23:06:25.248Z,2.60
2018-06-28T23:08:53.578Z,2.27
2018-06-28T23:11:21.931Z,2.65
2018-06-28T23:13:50.243Z,2.15
2018-06-28T23:16:18.688Z,3.60
2018-06-28T23:18:47.004Z,4.75
2018-06-28T23:21:16.152Z,1.70
2018-06-28T23:23:44.632Z,2.42
2018-06-28T23:26:13.289Z,1.90
2018-06-28T23:28:41.742Z,1.67
2018-06-28T23:31:10.185Z,1.65
2018-06-28T23:33:38.508Z,1.42
2018-06-28T23:36:06.905Z,1.65
2018-06-28T23:38:35.288Z,3.62
2018-06-28T23:41:04.577Z,3.40
2018-06-28T23:43:33.260Z,3.40
2018-06-28T23:46:03.713Z,2.75
2018-06-28T23:48:32.021Z,4.90
2018-06-28T23:51:00.514Z,2.72
2018-06-28T23:53:30.020Z,3.08
2018-06-28T23:55:58.489Z,2.87
2018-06-28T23:58:28.454Z,3.72
